Aviation Digital Data Service (ADDS)

Output produced by TAFs form (1537 UTC 27 May 2017)
found at http://aviationweather.gov/adds/tafs/
 
KTEX 271132Z 2712/2812 13005KT P6SM FEW070 SCT140 
     FM271800 28009KT P6SM VCSH BKN070 
     FM271930 28010G18KT P6SM VCTS SCT080CB 
     FM280000 31008KT P6SM SCT100 
     FM280400 05005KT P6SM SKC